Time;durP1;ratioP1;P1;durP2;ratioP2;P2;SDS_P1;SDS_P2;PMS_P1;PMS_P2;Temp;Humidity;BMP_temperature;BMP_pressure;BME280_temperature;BME280_humidity;BME280_pressure;Samples;Min_cycle;Max_cycle;Signal;HPM_P1;HPM_P2
2020/12/18 00:00:58;;;;;;;;;;;;;;;3.65;87.86;101159.19;5075105;28;19924;-70
2020/12/18 00:03:24;;;;;;;;;;;;;;;3.65;88.01;101159.19;5091136;28;19924;-70
2020/12/18 00:05:52;;;;;;;;;;;;;;;3.58;88.13;101158.06;5074927;28;19925;-70
2020/12/18 00:08:18;;;;;;;;;;;;;;;3.59;88.64;101157.06;5053566;28;19956;-70
2020/12/18 00:10:45;;;;;;;;;;;;;;;3.61;88.29;101148.84;5053123;28;19955;-70
2020/12/18 00:13:11;;;;;;;;;;;;;;;3.61;88.12;101156.91;5069939;28;20386;-70
2020/12/18 00:15:37;;;;;;;;;;;;;;;3.61;88.78;101148.84;5086722;28;20015;-69
2020/12/18 00:18:03;;;;;;;;;;;;;;;3.60;88.37;101149.84;5053127;28;19932;-70
2020/12/18 00:20:51;;;;;;;;;;;;;;;3.55;88.54;101152.13;5055819;28;19924;-70
2020/12/18 00:23:17;;;;;;;;;;;;;;;3.53;89.07;101159.50;5070030;28;20041;-70
2020/12/18 00:25:47;;;;;;;;;;;;;;;3.45;88.87;101154.03;5069869;28;19933;-70
2020/12/18 00:28:14;;;;;;;;;;;;;;;3.40;89.22;101161.69;5053163;28;19928;-69
2020/12/18 00:30:40;;;;;;;;;;;;;;;3.32;89.80;101165.97;5070310;28;19956;-70
2020/12/18 00:33:18;;;;;;;;;;;;;;;3.28;89.61;101167.25;5055115;28;20026;-70
2020/12/18 00:35:45;;;;;;;;;;;;;;;3.34;90.15;101169.34;5073917;28;19939;-70
2020/12/18 00:38:11;;;;;;;;;;;;;;;3.47;89.60;101166.31;5070236;28;20463;-62
2020/12/18 00:40:37;;;;;;;;;;;;;;;3.57;89.19;101169.84;5069881;28;20004;-62
2020/12/18 00:43:04;;;;;;;;;;;;;;;3.67;88.48;101167.13;5071287;28;20032;-70
2020/12/18 00:45:30;;;;;;;;;;;;;;;3.67;88.49;101159.03;5069670;28;19924;-70
2020/12/18 00:47:56;;;;;;;;;;;;;;;3.66;88.33;101160.88;5053682;28;19929;-70
2020/12/18 00:50:22;;;;;;;;;;;;;;;3.59;88.71;101167.00;5051122;28;20398;-70
2020/12/18 00:52:49;;;;;;;;;;;;;;;3.61;88.75;101168.56;5069214;28;19931;-70
2020/12/18 00:55:15;;;;;;;;;;;;;;;3.60;88.14;101172.25;5054034;28;19929;-70
2020/12/18 00:57:41;;;;;;;;;;;;;;;3.60;88.63;101171.38;5070335;28;20391;-70
2020/12/18 01:00:08;;;;;;;;;;;;;;;3.54;88.65;101169.28;5070454;28;19924;-70
2020/12/18 01:02:54;;;;;;;;;;;;;;;3.54;88.96;101164.75;5056565;28;20453;-70
2020/12/18 01:05:20;;;;;;;;;;;;;;;3.47;88.87;101165.47;5037499;28;19951;-70
2020/12/18 01:07:47;;;;;;;;;;;;;;;3.48;88.86;101169.88;5035681;28;20024;-70
2020/12/18 01:10:14;;;;;;;;;;;;;;;3.52;88.97;101160.50;5053766;28;20283;-70
2020/12/18 01:12:41;;;;;;;;;;;;;;;3.45;88.75;101168.34;5053793;28;19924;-70
2020/12/18 01:15:08;;;;;;;;;;;;;;;3.21;89.16;101170.66;5018294;28;19925;-70
2020/12/18 01:17:35;;;;;;;;;;;;;;;2.87;90.42;101170.28;5069482;28;19928;-70
2020/12/18 01:20:02;;;;;;;;;;;;;;;2.69;91.09;101171.00;5065239;28;19925;-70
2020/12/18 01:22:28;;;;;;;;;;;;;;;2.88;91.40;101166.59;5053563;28;19925;-70
2020/12/18 01:24:54;;;;;;;;;;;;;;;2.89;91.39;101166.44;5052573;28;19928;-70
2020/12/18 01:27:22;;;;;;;;;;;;;;;2.72;91.61;101172.56;5053118;28;20023;-71
2020/12/18 01:29:50;;;;;;;;;;;;;;;2.61;92.10;101168.16;5037254;28;19924;-70
2020/12/18 01:32:20;;;;;;;;;;;;;;;2.51;92.45;101170.00;5053781;28;20374;-71
2020/12/18 01:34:51;;;;;;;;;;;;;;;2.40;92.41;101180.06;5034979;28;20440;-70
2020/12/18 01:37:20;;;;;;;;;;;;;;;2.32;93.32;101181.59;5034215;28;20386;-71
2020/12/18 01:39:51;;;;;;;;;;;;;;;2.14;93.29;101177.84;5053338;28;19930;-70
2020/12/18 01:42:23;;;;;;;;;;;;;;;2.10;93.55;101175.56;5052148;28;19933;-70
2020/12/18 01:44:50;;;;;;;;;;;;;;;2.03;94.42;101183.38;5069678;28;20007;-69
2020/12/18 01:47:23;;;;;;;;;;;;;;;1.98;94.10;101181.09;5036126;28;19928;-70
2020/12/18 01:49:51;;;;;;;;;;;;;;;2.32;94.34;101176.22;5037815;28;20043;-70
2020/12/18 01:52:17;;;;;;;;;;;;;;;2.77;93.56;101170.31;5071712;28;19971;-70
2020/12/18 01:54:58;;;;;;;;;;;;;;;3.03;92.19;101162.47;5058422;28;19931;-69
2020/12/18 01:57:24;;;;;;;;;;;;;;;3.07;91.58;101163.88;5057184;28;19924;-69
2020/12/18 01:59:59;;;;;;;;;;;;;;;3.09;91.12;101159.22;5074710;28;19931;-69
2020/12/18 02:02:39;;;;;;;;;;;;;;;3.11;90.90;101165.31;5074000;28;20309;-69
2020/12/18 02:05:19;;;;;;;;;;;;;;;3.08;90.69;101173.66;5058520;28;19935;-69
2020/12/18 02:07:49;;;;;;;;;;;;;;;3.00;91.14;101170.84;5037174;28;19960;-70
2020/12/18 02:10:35;;;;;;;;;;;;;;;2.84;90.94;101168.72;5071323;28;20015;-70
2020/12/18 02:13:01;;;;;;;;;;;;;;;2.73;91.30;101165.34;5039653;28;19924;-70
2020/12/18 02:15:29;;;;;;;;;;;;;;;2.56;92.02;101165.03;5073781;28;19924;-70
2020/12/18 02:18:22;;;;;;;;;;;;;;;2.28;92.60;101173.94;5030881;28;20057;-70
2020/12/18 02:20:51;;;;;;;;;;;;;;;2.24;92.86;101170.66;5069606;28;20353;-70
2020/12/18 02:23:19;;;;;;;;;;;;;;;2.08;93.45;101180.28;5089410;28;19928;-69
2020/12/18 02:26:05;;;;;;;;;;;;;;;1.89;93.69;101179.22;5072717;28;19932;-70
2020/12/18 02:28:37;;;;;;;;;;;;;;;2.17;94.09;101182.97;5052329;28;20342;-69
2020/12/18 02:31:04;;;;;;;;;;;;;;;2.16;94.52;101172.34;5062995;28;19928;-69
2020/12/18 02:33:42;;;;;;;;;;;;;;;2.32;94.23;101181.59;5074578;28;20356;-69
2020/12/18 02:36:13;;;;;;;;;;;;;;;2.37;93.97;101174.94;5041471;28;19970;-69
2020/12/18 02:38:45;;;;;;;;;;;;;;;2.32;94.08;101178.91;5037524;28;19925;-69
2020/12/18 02:41:14;;;;;;;;;;;;;;;2.40;93.77;101178.22;5036002;28;19931;-69
2020/12/18 02:44:12;;;;;;;;;;;;;;;2.31;93.73;101165.59;5065682;28;19932;-69
2020/12/18 02:46:58;;;;;;;;;;;;;;;2.22;93.78;101178.03;5064170;28;19931;-68
2020/12/18 02:49:24;;;;;;;;;;;;;;;2.09;94.08;101182.78;5047871;28;19925;-69
2020/12/18 02:51:51;;;;;;;;;;;;;;;2.06;94.18;101176.88;5052252;28;19968;-69
2020/12/18 02:54:46;;;;;;;;;;;;;;;2.05;94.41;101175.16;5075989;28;19952;-69
2020/12/18 02:57:31;;;;;;;;;;;;;;;2.29;94.11;101175.63;5072065;28;19952;-69
2020/12/18 03:00:06;;;;;;;;;;;;;;;2.51;93.71;101178.06;5072987;28;19943;-69
2020/12/18 03:02:36;;;;;;;;;;;;;;;2.49;93.45;101179.19;5055815;28;19932;-69
2020/12/18 03:05:06;;;;;;;;;;;;;;;2.53;92.82;101184.16;5052582;28;19994;-69
2020/12/18 03:08:08;;;;;;;;;;;;;;;2.66;92.47;101182.06;5039364;28;19924;-69
2020/12/18 03:10:34;;;;;;;;;;;;;;;2.65;92.26;101190.25;5034751;28;19925;-69
2020/12/18 03:13:01;;;;;;;;;;;;;;;2.70;91.93;101185.31;5069115;28;19960;-69
2020/12/18 03:15:28;;;;;;;;;;;;;;;2.71;92.08;101180.78;5062501;28;19948;-69
2020/12/18 03:18:17;;;;;;;;;;;;;;;2.77;91.71;101182.91;5064252;28;19924;-69
2020/12/18 03:20:44;;;;;;;;;;;;;;;2.84;91.72;101178.63;5056207;28;19932;-69
2020/12/18 03:23:29;;;;;;;;;;;;;;;2.78;91.50;101181.88;5058217;28;20030;-69
2020/12/18 03:26:14;;;;;;;;;;;;;;;2.81;91.49;101178.91;5074180;28;19931;-69
2020/12/18 03:28:48;;;;;;;;;;;;;;;2.86;91.40;101182.03;5062671;28;20306;-69
2020/12/18 03:31:14;;;;;;;;;;;;;;;2.92;91.41;101181.47;5039495;28;20414;-69
2020/12/18 03:33:41;;;;;;;;;;;;;;;2.95;91.60;101181.19;5088913;28;19950;-69
2020/12/18 03:36:24;;;;;;;;;;;;;;;2.96;91.21;101182.88;5044504;28;19925;-69
2020/12/18 03:38:53;;;;;;;;;;;;;;;2.95;91.33;101178.50;5072295;28;19979;-69
2020/12/18 03:41:20;;;;;;;;;;;;;;;2.92;91.27;101181.47;5039151;28;20433;-69
2020/12/18 03:43:46;;;;;;;;;;;;;;;2.83;91.64;101176.94;5040876;28;19951;-69
2020/12/18 03:46:14;;;;;;;;;;;;;;;2.61;92.05;101186.16;5038305;28;19925;-69
2020/12/18 03:48:59;;;;;;;;;;;;;;;2.31;92.95;101187.09;5078817;28;19924;-69
2020/12/18 03:51:33;;;;;;;;;;;;;;;2.32;93.45;101183.44;5041028;28;19925;-69
2020/12/18 03:53:59;;;;;;;;;;;;;;;2.15;93.84;101187.63;5038336;28;19931;-69
2020/12/18 03:56:32;;;;;;;;;;;;;;;1.97;93.99;101195.50;5055223;28;20302;-69
2020/12/18 03:59:18;;;;;;;;;;;;;;;1.89;94.72;101189.97;5041642;28;21226;-69
2020/12/18 04:02:07;;;;;;;;;;;;;;;2.04;95.03;101193.13;5042747;28;19925;-69
2020/12/18 04:04:35;;;;;;;;;;;;;;;1.96;94.97;101199.19;5054067;28;19924;-69
2020/12/18 04:07:04;;;;;;;;;;;;;;;1.87;95.52;101204.53;5049322;28;20275;-69
2020/12/18 04:09:31;;;;;;;;;;;;;;;1.87;95.61;101202.69;5086330;28;19925;-69
2020/12/18 04:12:06;;;;;;;;;;;;;;;1.81;95.59;101197.84;5033964;28;19932;-69
2020/12/18 04:15:01;;;;;;;;;;;;;;;2.02;95.47;101203.19;5067860;23;20405;-69
2020/12/18 04:17:41;;;;;;;;;;;;;;;2.42;95.15;101200.44;5054736;28;19936;-69
2020/12/18 04:20:10;;;;;;;;;;;;;;;2.63;94.07;101211.06;5036885;28;19931;-69
2020/12/18 04:22:44;;;;;;;;;;;;;;;2.51;93.26;101210.34;5041264;28;19967;-72
2020/12/18 04:25:24;;;;;;;;;;;;;;;2.44;93.38;101211.88;5001386;28;19925;-69
2020/12/18 04:27:51;;;;;;;;;;;;;;;2.33;93.69;101217.41;5013526;28;19975;-69
2020/12/18 04:30:17;;;;;;;;;;;;;;;2.45;93.13;101213.59;5029882;28;20379;-69
2020/12/18 04:32:46;;;;;;;;;;;;;;;2.64;92.82;101216.31;5012325;28;20040;-69
2020/12/18 04:35:13;;;;;;;;;;;;;;;2.75;92.05;101215.34;5022123;28;19933;-69
2020/12/18 04:38:01;;;;;;;;;;;;;;;2.83;91.63;101220.00;5029668;28;19925;-72
2020/12/18 04:40:39;;;;;;;;;;;;;;;2.84;91.44;101224.38;5021269;28;19963;-71
2020/12/18 04:43:24;;;;;;;;;;;;;;;2.85;91.24;101215.31;4996608;28;20001;-71
2020/12/18 04:45:57;;;;;;;;;;;;;;;2.86;91.33;101217.88;5012156;28;19956;-71
2020/12/18 04:48:28;;;;;;;;;;;;;;;2.87;91.12;101216.03;5024356;28;20310;-71
2020/12/18 04:50:56;;;;;;;;;;;;;;;2.89;90.88;101216.75;5010245;28;20469;-71
2020/12/18 04:53:38;;;;;;;;;;;;;;;2.90;91.23;101218.44;5010408;28;19932;-72
2020/12/18 04:56:13;;;;;;;;;;;;;;;2.87;90.73;101211.50;5012213;28;19956;-72
2020/12/18 04:58:50;;;;;;;;;;;;;;;2.83;90.78;101220.00;5012241;28;19952;-71
2020/12/18 05:01:18;;;;;;;;;;;;;;;2.80;91.15;101215.75;4991364;28;20020;-71
2020/12/18 05:03:52;;;;;;;;;;;;;;;2.73;91.08;101224.53;4986209;28;19961;-72
2020/12/18 05:06:20;;;;;;;;;;;;;;;2.62;91.18;101221.00;5034830;28;20398;-71
2020/12/18 05:08:46;;;;;;;;;;;;;;;2.71;91.38;101218.44;5012889;28;19925;-71
2020/12/18 05:11:16;;;;;;;;;;;;;;;2.68;91.23;101222.28;5029242;28;19935;-71
2020/12/18 05:13:44;;;;;;;;;;;;;;;2.66;91.22;101221.56;5025974;28;20435;-71
2020/12/18 05:16:13;;;;;;;;;;;;;;;2.74;91.48;101228.94;5023130;28;20387;-72
2020/12/18 05:18:42;;;;;;;;;;;;;;;2.75;91.31;101225.25;5016841;28;19925;-71
2020/12/18 05:21:49;;;;;;;;;;;;;;;2.88;91.03;101223.97;5029387;28;19925;-71
2020/12/18 05:24:26;;;;;;;;;;;;;;;2.90;90.63;101215.75;5000701;28;20561;-72
2020/12/18 05:26:53;;;;;;;;;;;;;;;2.99;90.47;101212.22;5005098;28;19925;-72
2020/12/18 05:29:19;;;;;;;;;;;;;;;3.06;90.17;101215.19;5016720;28;19935;-72
2020/12/18 05:32:08;;;;;;;;;;;;;;;3.13;90.04;101217.16;5031423;28;19929;-72
2020/12/18 05:34:44;;;;;;;;;;;;;;;3.24;89.63;101226.94;5015898;28;19926;-72
2020/12/18 05:37:19;;;;;;;;;;;;;;;3.31;89.61;101228.91;5005123;28;19933;-71
2020/12/18 05:39:56;;;;;;;;;;;;;;;3.37;89.21;101227.47;5031769;28;19967;-72
2020/12/18 05:42:46;;;;;;;;;;;;;;;3.40;88.92;101229.03;5034582;28;19925;-71
2020/12/18 05:45:16;;;;;;;;;;;;;;;3.43;88.90;101226.06;5016774;28;19926;-71
2020/12/18 05:47:53;;;;;;;;;;;;;;;3.46;88.65;101229.31;5017389;28;19925;-69
2020/12/18 05:50:20;;;;;;;;;;;;;;;3.45;88.52;101227.63;4995839;28;19925;-69
2020/12/18 05:52:53;;;;;;;;;;;;;;;3.54;88.10;101218.63;5002234;28;19925;-69
2020/12/18 05:55:37;;;;;;;;;;;;;;;3.60;88.13;101227.97;5011398;28;20353;-71
2020/12/18 05:58:20;;;;;;;;;;;;;;;3.62;88.01;101228.69;5028146;28;20130;-72
2020/12/18 06:00:59;;;;;;;;;;;;;;;3.70;87.69;101229.66;4999829;28;19926;-71
2020/12/18 06:03:44;;;;;;;;;;;;;;;3.77;87.19;101232.63;5011448;28;20255;-71
2020/12/18 06:06:12;;;;;;;;;;;;;;;3.80;87.41;101236.88;5024609;28;19925;-71
2020/12/18 06:08:41;;;;;;;;;;;;;;;3.86;87.08;101228.19;5016529;28;20015;-71
2020/12/18 06:11:10;;;;;;;;;;;;;;;3.83;87.21;101229.31;5012759;28;19926;-71
2020/12/18 06:13:42;;;;;;;;;;;;;;;3.82;87.16;101229.47;5024308;28;19925;-71
2020/12/18 06:16:19;;;;;;;;;;;;;;;3.81;87.10;101231.31;5028100;28;19933;-71
2020/12/18 06:19:03;;;;;;;;;;;;;;;3.82;86.87;101233.00;5021012;28;19945;-71
2020/12/18 06:21:35;;;;;;;;;;;;;;;3.87;86.75;101225.34;5016575;28;20006;-68
2020/12/18 06:24:03;;;;;;;;;;;;;;;3.85;86.77;101234.56;5003141;28;19925;-71
2020/12/18 06:26:53;;;;;;;;;;;;;;;3.86;86.85;101230.88;5017578;28;19929;-71
2020/12/18 06:29:39;;;;;;;;;;;;;;;3.90;86.03;101233.13;5031316;28;20015;-71
2020/12/18 06:32:29;;;;;;;;;;;;;;;3.93;86.11;101232.84;5021613;28;19925;-71
2020/12/18 06:35:32;;;;;;;;;;;;;;;3.95;85.98;101233.53;5026631;28;19932;-71
2020/12/18 06:38:20;;;;;;;;;;;;;;;3.98;85.61;101237.78;5031547;28;19925;-71
2020/12/18 06:41:20;;;;;;;;;;;;;;;4.06;85.60;101247.84;5025112;28;19925;-71
2020/12/18 06:43:58;;;;;;;;;;;;;;;4.09;85.55;101248.41;5016911;28;19925;-72
2020/12/18 06:46:33;;;;;;;;;;;;;;;4.10;85.82;101243.84;5030846;28;19933;-72
2020/12/18 06:49:50;;;;;;;;;;;;;;;4.10;85.59;101242.00;5011358;28;19926;-72
2020/12/18 06:52:39;;;;;;;;;;;;;;;4.10;85.44;101238.47;5023029;28;19925;-71
2020/12/18 06:55:06;;;;;;;;;;;;;;;4.12;85.87;101247.25;5014997;28;19937;-71
2020/12/18 06:58:11;;;;;;;;;;;;;;;4.14;85.22;101246.09;5048371;28;20299;-71
2020/12/18 07:00:41;;;;;;;;;;;;;;;4.16;85.14;101249.47;5032760;28;19925;-71
2020/12/18 07:03:07;;;;;;;;;;;;;;;4.16;84.93;101249.47;5032297;28;19929;-71
2020/12/18 07:05:35;;;;;;;;;;;;;;;4.14;85.71;101256.91;5011459;28;19932;-70
2020/12/18 07:08:06;;;;;;;;;;;;;;;4.13;85.30;101251.66;5005994;28;19925;-71
2020/12/18 07:10:38;;;;;;;;;;;;;;;4.16;85.61;101248.66;5014892;28;19925;-71
2020/12/18 07:13:05;;;;;;;;;;;;;;;4.22;84.77;101254.28;5030922;28;19932;-71
2020/12/18 07:15:44;;;;;;;;;;;;;;;4.30;84.85;101253.53;5030582;28;19931;-71
2020/12/18 07:18:29;;;;;;;;;;;;;;;4.34;84.46;101252.25;5028088;28;19972;-71
2020/12/18 07:20:55;;;;;;;;;;;;;;;4.39;84.73;101249.94;5014304;28;20015;-71
2020/12/18 07:23:22;;;;;;;;;;;;;;;4.39;84.29;101244.56;5031837;28;19948;-71
2020/12/18 07:25:49;;;;;;;;;;;;;;;4.40;83.77;101246.25;4994885;28;19925;-71
2020/12/18 07:28:15;;;;;;;;;;;;;;;4.43;83.81;101251.34;5016592;28;20371;-71
2020/12/18 07:30:45;;;;;;;;;;;;;;;4.42;83.85;101249.66;5030616;28;19925;-71
2020/12/18 07:33:12;;;;;;;;;;;;;;;4.44;83.75;101253.03;4993974;28;19925;-71
2020/12/18 07:35:51;;;;;;;;;;;;;;;4.49;84.14;101256.16;5018778;28;19925;-71
2020/12/18 07:38:22;;;;;;;;;;;;;;;4.60;83.27;101252.38;5033626;28;19928;-71
2020/12/18 07:40:51;;;;;;;;;;;;;;;4.66;83.73;101260.72;5039311;28;19981;-71
2020/12/18 07:43:18;;;;;;;;;;;;;;;4.75;82.68;101252.72;5031430;28;19925;-71
2020/12/18 07:45:46;;;;;;;;;;;;;;;4.80;82.27;101253.94;5010235;28;19926;-71
2020/12/18 07:48:16;;;;;;;;;;;;;;;4.82;82.46;101246.56;5026297;28;19935;-71
2020/12/18 07:50:52;;;;;;;;;;;;;;;4.90;82.41;101245.75;5029954;28;19969;-71
2020/12/18 07:53:19;;;;;;;;;;;;;;;4.96;82.23;101250.53;5032985;28;19972;-71
2020/12/18 07:55:56;;;;;;;;;;;;;;;5.00;81.28;101243.84;5030610;28;19925;-71
2020/12/18 07:58:22;;;;;;;;;;;;;;;5.04;81.42;101253.34;5012173;28;19983;-71
2020/12/18 08:00:49;;;;;;;;;;;;;;;5.07;80.95;101244.91;5030051;28;20341;-71
2020/12/18 08:03:15;;;;;;;;;;;;;;;5.11;81.49;101237.34;5026838;28;19991;-71
2020/12/18 08:05:44;;;;;;;;;;;;;;;5.16;80.99;101229.63;5001954;28;19980;-71
2020/12/18 08:08:10;;;;;;;;;;;;;;;5.19;80.90;101232.03;5031304;28;19980;-71
2020/12/18 08:10:40;;;;;;;;;;;;;;;5.23;80.01;101236.09;5046408;28;19925;-71
2020/12/18 08:13:06;;;;;;;;;;;;;;;5.26;80.43;101235.78;5010554;28;19925;-71
2020/12/18 08:15:33;;;;;;;;;;;;;;;5.28;79.77;101229.22;5010662;28;19925;-71
2020/12/18 08:17:59;;;;;;;;;;;;;;;5.38;79.56;101229.97;5026492;28;19960;-71
2020/12/18 08:20:25;;;;;;;;;;;;;;;5.48;79.91;101232.59;5029372;28;20462;-71
2020/12/18 08:22:51;;;;;;;;;;;;;;;5.55;79.24;101232.78;5030172;28;19941;-70
2020/12/18 08:25:18;;;;;;;;;;;;;;;5.63;78.93;101230.13;5013569;28;19929;-71
2020/12/18 08:27:48;;;;;;;;;;;;;;;5.72;78.60;101229.19;5013508;28;19933;-71
2020/12/18 08:30:15;;;;;;;;;;;;;;;5.78;78.49;101225.84;5010049;28;20393;-71
2020/12/18 08:32:45;;;;;;;;;;;;;;;5.76;78.44;101235.13;5024520;28;19963;-71
2020/12/18 08:35:11;;;;;;;;;;;;;;;5.81;78.06;101225.53;5027190;28;19972;-71
2020/12/18 08:37:37;;;;;;;;;;;;;;;5.88;78.32;101229.31;5022715;28;19929;-71
2020/12/18 08:40:16;;;;;;;;;;;;;;;5.93;78.03;101226.97;5026559;28;20027;-71
2020/12/18 08:42:42;;;;;;;;;;;;;;;5.94;77.36;101228.66;5022642;28;19925;-71
2020/12/18 08:45:09;;;;;;;;;;;;;;;5.99;77.42;101229.03;5026459;28;20310;-71
2020/12/18 08:47:35;;;;;;;;;;;;;;;6.03;77.46;101233.13;5037186;28;19932;-71
2020/12/18 08:50:01;;;;;;;;;;;;;;;6.22;77.06;101229.34;5029686;28;20012;-71
2020/12/18 08:52:28;;;;;;;;;;;;;;;6.37;76.29;101224.97;5009661;28;19930;-71
2020/12/18 08:55:04;;;;;;;;;;;;;;;6.67;74.57;101220.81;5023569;28;19936;-71
2020/12/18 08:57:31;;;;;;;;;;;;;;;6.89;73.92;101218.50;5012136;28;20387;-71
2020/12/18 09:00:10;;;;;;;;;;;;;;;7.21;72.60;101215.81;5028808;28;19924;-71
2020/12/18 09:02:57;;;;;;;;;;;;;;;7.24;72.00;101223.59;5034494;28;19925;-71
2020/12/18 09:05:28;;;;;;;;;;;;;;;8.06;69.52;101236.00;5032870;28;19929;-71
2020/12/18 09:07:58;;;;;;;;;;;;;;;8.60;67.72;101236.16;5033299;28;20305;-71
2020/12/18 09:10:26;;;;;;;;;;;;;;;8.91;66.28;101229.84;5000873;28;20020;-71
2020/12/18 09:12:52;;;;;;;;;;;;;;;8.52;67.28;101229.91;5033384;28;19929;-71
2020/12/18 09:15:19;;;;;;;;;;;;;;;8.37;68.10;101240.66;5016437;28;19929;-71
2020/12/18 09:17:46;;;;;;;;;;;;;;;10.21;62.68;101228.63;5032859;28;19983;-71
2020/12/18 09:20:25;;;;;;;;;;;;;;;11.51;56.62;101230.28;5033718;28;19932;-69
2020/12/18 09:22:59;;;;;;;;;;;;;;;13.28;53.46;101223.19;5024537;28;19926;-71
2020/12/18 09:25:25;;;;;;;;;;;;;;;13.84;49.27;101220.88;5032156;28;20420;-71
2020/12/18 09:27:52;;;;;;;;;;;;;;;12.97;50.77;101223.75;5034097;28;20394;-70
2020/12/18 09:30:25;;;;;;;;;;;;;;;12.85;51.46;101222.66;5034241;28;20322;-70
2020/12/18 09:33:10;;;;;;;;;;;;;;;12.10;53.48;101212.69;5033004;28;19932;-70
2020/12/18 09:35:37;;;;;;;;;;;;;;;11.02;57.12;101217.47;5032928;28;20349;-70
2020/12/18 09:38:03;;;;;;;;;;;;;;;11.56;55.70;101208.69;5015833;28;19926;-70
2020/12/18 09:40:29;;;;;;;;;;;;;;;12.02;54.40;101202.75;5013201;28;19925;-70
2020/12/18 09:42:56;;;;;;;;;;;;;;;13.45;50.52;101199.00;5027929;28;20020;-70
2020/12/18 09:45:39;;;;;;;;;;;;;;;13.20;50.07;101199.59;5036147;28;19925;-70
2020/12/18 09:48:05;;;;;;;;;;;;;;;14.08;48.61;101198.28;5030362;28;19948;-71
2020/12/18 09:50:31;;;;;;;;;;;;;;;14.38;47.23;101197.75;5035297;28;19925;-71
2020/12/18 09:52:57;;;;;;;;;;;;;;;13.89;48.01;101199.13;4998612;28;20306;-71
2020/12/18 09:55:23;;;;;;;;;;;;;;;14.61;46.55;101192.59;5040552;28;19925;-71
2020/12/18 09:57:51;;;;;;;;;;;;;;;14.91;45.96;101183.78;5045782;28;19925;-70
2020/12/18 10:00:17;;;;;;;;;;;;;;;15.43;44.45;101188.91;5034426;28;19925;-71
2020/12/18 10:02:43;;;;;;;;;;;;;;;16.43;42.27;101186.81;5023525;28;19925;-71
2020/12/18 10:05:09;;;;;;;;;;;;;;;17.16;40.08;101188.59;5034580;28;19925;-71
2020/12/18 10:07:36;;;;;;;;;;;;;;;17.22;39.88;101175.78;5028730;28;19925;-70
2020/12/18 10:10:03;;;;;;;;;;;;;;;17.21;39.35;101174.94;5027318;28;19925;-70
2020/12/18 10:12:29;;;;;;;;;;;;;;;16.72;40.61;101174.19;5016279;28;19925;-70
2020/12/18 10:14:55;;;;;;;;;;;;;;;16.53;41.03;101178.03;5075063;23;19932;-71
2020/12/18 10:17:22;;;;;;;;;;;;;;;17.04;40.24;101169.25;5073560;28;19924;-71
2020/12/18 10:19:48;;;;;;;;;;;;;;;17.36;39.52;101167.03;5053772;28;19925;-71
2020/12/18 10:22:14;;;;;;;;;;;;;;;18.25;37.68;101158.66;5043922;28;19924;-71
2020/12/18 10:24:41;;;;;;;;;;;;;;;18.29;37.05;101160.69;5073706;28;20443;-72
2020/12/18 10:27:07;;;;;;;;;;;;;;;17.88;37.65;101158.97;5055508;28;19925;-71
2020/12/18 10:29:33;;;;;;;;;;;;;;;18.17;37.72;101150.75;5072644;28;19951;-71
2020/12/18 10:31:59;;;;;;;;;;;;;;;17.44;38.73;101154.84;5072172;28;19948;-71
2020/12/18 10:34:26;;;;;;;;;;;;;;;17.55;38.74;101158.69;5072570;28;19928;-72
2020/12/18 10:36:53;;;;;;;;;;;;;;;17.66;38.26;101150.47;5039992;28;19978;-71
2020/12/18 10:39:22;;;;;;;;;;;;;;;17.47;38.94;101148.84;5073996;28;20403;-71
2020/12/18 10:41:48;;;;;;;;;;;;;;;17.43;38.48;101148.50;5078579;28;19955;-73
2020/12/18 10:44:14;;;;;;;;;;;;;;;18.07;37.83;101140.34;5057618;28;19924;-71
2020/12/18 10:46:41;;;;;;;;;;;;;;;18.37;36.84;101145.66;5019448;28;20359;-71
2020/12/18 10:49:09;;;;;;;;;;;;;;;18.98;35.28;101141.34;5045848;28;19924;-71
2020/12/18 10:51:40;;;;;;;;;;;;;;;18.60;36.22;101144.78;5070227;28;19929;-72
2020/12/18 10:54:06;;;;;;;;;;;;;;;18.30;36.98;101139.47;5024474;28;20080;-72
2020/12/18 10:56:33;;;;;;;;;;;;;;;17.66;37.63;101135.84;5032918;28;19924;-71
2020/12/18 10:58:59;;;;;;;;;;;;;;;18.50;36.60;101133.50;5055953;28;19931;-71
2020/12/18 11:01:25;;;;;;;;;;;;;;;17.90;37.17;101131.97;5072965;28;19959;-72
2020/12/18 11:03:51;;;;;;;;;;;;;;;18.22;37.12;101134.31;5073575;28;20022;-72
2020/12/18 11:06:18;;;;;;;;;;;;;;;17.65;37.94;101121.22;5036836;28;20023;-71
2020/12/18 11:08:44;;;;;;;;;;;;;;;18.09;37.25;101127.13;5069680;28;19931;-71
2020/12/18 11:11:14;;;;;;;;;;;;;;;18.73;36.08;101128.72;5043330;28;19925;-71
2020/12/18 11:13:40;;;;;;;;;;;;;;;18.96;35.36;101127.78;5067413;28;19956;-71
2020/12/18 11:16:07;;;;;;;;;;;;;;;18.60;35.72;101129.06;5059693;28;19960;-71
2020/12/18 11:18:34;;;;;;;;;;;;;;;18.62;35.91;101126.03;5035775;28;19929;-72
2020/12/18 11:21:01;;;;;;;;;;;;;;;18.96;35.65;101115.91;5059541;28;20397;-72
2020/12/18 11:23:27;;;;;;;;;;;;;;;18.35;36.30;101118.31;5052841;28;20266;-71
2020/12/18 11:25:53;;;;;;;;;;;;;;;17.72;37.76;101116.41;5073808;28;19924;-71
2020/12/18 11:28:19;;;;;;;;;;;;;;;18.67;36.65;101118.69;5072295;28;20486;-71
2020/12/18 11:30:45;;;;;;;;;;;;;;;18.49;36.10;101104.22;5072196;28;19959;-71
2020/12/18 11:33:12;;;;;;;;;;;;;;;18.83;35.78;101100.47;5051501;28;19932;-71
2020/12/18 11:35:38;;;;;;;;;;;;;;;19.57;34.47;101100.34;5062382;28;19931;-71
2020/12/18 11:38:04;;;;;;;;;;;;;;;18.96;35.40;101096.56;5073133;28;19932;-71
2020/12/18 11:40:30;;;;;;;;;;;;;;;19.13;34.92;101094.63;5071482;28;19963;-71
2020/12/18 11:42:57;;;;;;;;;;;;;;;18.63;35.85;101095.44;5071784;28;19957;-72
2020/12/18 11:45:24;;;;;;;;;;;;;;;19.08;34.99;101091.78;5035331;28;19925;-71
2020/12/18 11:47:50;;;;;;;;;;;;;;;18.53;35.96;101089.69;5044751;28;20015;-71
2020/12/18 11:50:16;;;;;;;;;;;;;;;19.15;35.24;101081.41;5034973;28;20310;-71
2020/12/18 11:52:43;;;;;;;;;;;;;;;19.26;35.02;101087.94;5045868;28;19931;-71
2020/12/18 11:55:09;;;;;;;;;;;;;;;19.40;35.25;101079.03;5055040;28;19959;-71
2020/12/18 11:57:42;;;;;;;;;;;;;;;20.18;33.48;101074.31;5074233;28;19924;-71
2020/12/18 12:00:08;;;;;;;;;;;;;;;19.71;34.14;101076.78;5071299;28;20011;-71
2020/12/18 12:02:39;;;;;;;;;;;;;;;18.58;35.98;101075.97;5073319;28;20019;-71
2020/12/18 12:05:05;;;;;;;;;;;;;;;17.88;37.34;101078.16;5036516;28;19960;-71
2020/12/18 12:07:32;;;;;;;;;;;;;;;17.81;37.61;101078.28;5051311;28;19932;-72
2020/12/18 12:09:58;;;;;;;;;;;;;;;17.66;37.89;101069.69;5048025;28;19996;-71
2020/12/18 12:12:24;;;;;;;;;;;;;;;18.05;37.42;101074.38;5054459;28;19932;-71
2020/12/18 12:14:51;;;;;;;;;;;;;;;17.97;37.24;101066.50;5070635;28;20336;-71
2020/12/18 12:17:17;;;;;;;;;;;;;;;18.95;35.65;101061.75;5050992;28;19931;-71
2020/12/18 12:19:43;;;;;;;;;;;;;;;18.15;36.43;101064.63;5060365;28;19936;-71
2020/12/18 12:22:09;;;;;;;;;;;;;;;17.42;38.12;101050.34;5065872;28;19925;-71
2020/12/18 12:24:42;;;;;;;;;;;;;;;17.67;38.10;101055.63;5054489;28;20002;-71
2020/12/18 12:27:12;;;;;;;;;;;;;;;18.70;35.93;101048.34;5054828;28;19930;-71
2020/12/18 12:29:38;;;;;;;;;;;;;;;19.11;35.05;101041.53;5053763;28;19924;-71
2020/12/18 12:32:05;;;;;;;;;;;;;;;18.42;36.15;101040.88;5070495;28;20011;-71
2020/12/18 12:34:31;;;;;;;;;;;;;;;18.94;35.20;101040.72;5054136;28;19924;-71
2020/12/18 12:36:58;;;;;;;;;;;;;;;19.59;34.04;101038.16;5070339;28;19930;-71
2020/12/18 12:39:24;;;;;;;;;;;;;;;17.25;38.04;101048.59;5070647;28;19925;-71
2020/12/18 12:41:51;;;;;;;;;;;;;;;17.14;38.91;101046.66;5074119;28;19951;-71
2020/12/18 12:44:17;;;;;;;;;;;;;;;16.94;39.06;101047.00;5055028;28;19933;-71
2020/12/18 12:46:43;;;;;;;;;;;;;;;17.41;38.43;101048.69;5070656;28;20003;-71
2020/12/18 12:49:09;;;;;;;;;;;;;;;17.70;37.69;101054.31;5070091;28;19924;-71
2020/12/18 12:51:36;;;;;;;;;;;;;;;17.50;38.09;101043.66;5069717;28;19930;-71
2020/12/18 12:54:02;;;;;;;;;;;;;;;17.69;37.83;101050.72;5058152;28;20011;-71
2020/12/18 12:56:28;;;;;;;;;;;;;;;18.27;36.67;101046.97;5069942;28;19928;-71
2020/12/18 12:58:55;;;;;;;;;;;;;;;16.29;40.35;101053.25;5053581;28;20395;-71
2020/12/18 13:01:21;;;;;;;;;;;;;;;14.86;44.22;101051.88;5053845;28;19932;-71
2020/12/18 13:03:47;;;;;;;;;;;;;;;16.89;39.97;101055.13;5070123;28;19924;-71